Time;durP1;ratioP1;P1;durP2;ratioP2;P2;SDS_P1;SDS_P2;PMS_P1;PMS_P2;Temp;Humidity;BMP_temperature;BMP_pressure;BME280_temperature;BME280_humidity;BME280_pressure;Samples;Min_cycle;Max_cycle;Signal;HPM_P1;HPM_P2
2023/08/23 00:00:24;;;;;;;2.40;2.20;;;31.00;47.80;;;;;;5066291;28;45277;-75
2023/08/23 00:02:51;;;;;;;2.20;2.00;;;31.00;47.80;;;;;;5066294;28;45375;-75
2023/08/23 00:05:18;;;;;;;3.00;1.90;;;30.90;47.80;;;;;;5066383;28;45294;-74
2023/08/23 00:07:45;;;;;;;2.20;2.00;;;30.90;47.80;;;;;;5066094;28;46363;-74
2023/08/23 00:10:13;;;;;;;2.35;2.15;;;30.90;47.90;;;;;;5066048;28;45203;-74
2023/08/23 00:12:40;;;;;;;2.53;2.00;;;30.90;47.90;;;;;;5066272;28;45254;-74
2023/08/23 00:15:08;;;;;;;2.33;2.05;;;30.90;47.90;;;;;;5065745;28;45402;-75
2023/08/23 00:17:35;;;;;;;2.28;1.95;;;30.80;48.00;;;;;;5066092;28;45381;-74
2023/08/23 00:20:03;;;;;;;1.80;1.70;;;30.80;47.90;;;;;;5065981;28;45282;-74
2023/08/23 00:22:30;;;;;;;2.90;2.42;;;30.80;48.00;;;;;;5065933;28;45320;-73
2023/08/23 00:24:57;;;;;;;2.28;2.08;;;30.80;48.10;;;;;;5062652;28;45406;-74
2023/08/23 00:27:25;;;;;;;2.22;1.90;;;30.80;48.00;;;;;;5065856;28;46408;-74
2023/08/23 00:29:52;;;;;;;2.13;1.80;;;30.70;48.00;;;;;;5065852;28;45258;-74
2023/08/23 00:32:22;;;;;;;2.10;2.00;;;30.70;48.00;;;;;;5065811;28;45333;-74
2023/08/23 00:34:48;;;;;;;2.25;2.05;;;30.70;48.00;;;;;;5066153;28;45404;-73
2023/08/23 00:37:15;;;;;;;2.28;2.00;;;30.70;48.00;;;;;;5065812;28;45397;-73
2023/08/23 00:39:42;;;;;;;2.20;2.00;;;30.70;48.00;;;;;;5065740;28;45330;-74
2023/08/23 00:42:10;;;;;;;2.10;2.00;;;30.70;48.00;;;;;;5065833;28;45264;-74
2023/08/23 00:44:38;;;;;;;2.38;1.75;;;30.70;48.10;;;;;;5065868;28;45387;-74
2023/08/23 00:47:05;;;;;;;2.08;1.88;;;30.60;48.10;;;;;;5065644;28;47385;-75
2023/08/23 00:49:34;;;;;;;2.20;2.00;;;30.60;48.10;;;;;;5065603;28;45206;-75
2023/08/23 00:52:02;;;;;;;2.10;1.90;;;30.60;48.20;;;;;;5065564;28;45360;-75
2023/08/23 00:54:29;;;;;;;2.47;2.00;;;30.60;48.20;;;;;;5065802;28;45361;-75
2023/08/23 00:56:56;;;;;;;2.30;2.03;;;30.60;48.20;;;;;;5065354;28;46564;-75
2023/08/23 00:59:23;;;;;;;2.55;2.35;;;30.60;48.20;;;;;;5065674;28;45277;-75
2023/08/23 01:01:52;;;;;;;1.80;1.70;;;30.50;48.20;;;;;;5065782;28;45312;-75
2023/08/23 01:04:18;;;;;;;2.17;2.08;;;30.50;48.20;;;;;;5069148;28;45384;-75
2023/08/23 01:06:55;;;;;;;1.98;1.85;;;30.50;48.30;;;;;;5068881;28;45326;-74
2023/08/23 01:09:26;;;;;;;2.13;2.03;;;30.50;48.30;;;;;;5068882;28;45293;-75
2023/08/23 01:11:56;;;;;;;1.77;1.67;;;30.40;48.30;;;;;;5069106;28;45367;-74
2023/08/23 01:14:26;;;;;;;2.38;2.17;;;30.40;48.30;;;;;;5069139;28;45255;-75
2023/08/23 01:16:54;;;;;;;2.20;2.00;;;30.40;48.30;;;;;;5068480;28;46382;-75
2023/08/23 01:19:45;;;;;;;2.08;1.88;;;30.40;48.30;;;;;;5067946;28;45325;-75
2023/08/23 01:22:14;;;;;;;3.15;1.80;;;30.40;48.30;;;;;;5049138;28;45439;-74
2023/08/23 01:24:42;;;;;;;2.00;1.90;;;30.40;48.30;;;;;;5068806;28;45207;-74
2023/08/23 01:27:09;;;;;;;3.58;1.90;;;30.40;48.40;;;;;;5067742;28;46916;-75
2023/08/23 01:29:36;;;;;;;2.20;2.00;;;30.40;48.40;;;;;;5068477;28;45420;-74
2023/08/23 01:32:10;;;;;;;1.70;1.60;;;30.30;48.40;;;;;;5068656;28;45210;-74
2023/08/23 01:34:38;;;;;;;2.92;1.58;;;30.30;48.40;;;;;;5068607;28;45420;-75
2023/08/23 01:37:05;;;;;;;2.20;2.00;;;30.30;48.40;;;;;;5068291;28;47373;-75
2023/08/23 01:39:32;;;;;;;1.98;1.77;;;30.30;48.50;;;;;;5068351;28;45244;-75
2023/08/23 01:42:00;;;;;;;2.25;2.00;;;30.30;48.50;;;;;;5068306;28;45143;-75
2023/08/23 01:44:27;;;;;;;2.05;1.95;;;30.30;48.50;;;;;;5068442;28;45315;-75
2023/08/23 01:46:53;;;;;;;2.20;2.00;;;30.20;48.50;;;;;;5068112;28;46395;-75
2023/08/23 01:49:20;;;;;;;1.88;1.77;;;30.20;48.50;;;;;;5067953;28;45492;-75
2023/08/23 01:51:47;;;;;;;2.20;2.00;;;30.20;48.50;;;;;;5068070;28;45266;-75
2023/08/23 01:54:14;;;;;;;2.28;1.88;;;30.20;48.50;;;;;;5068468;28;45382;-75
2023/08/23 01:56:41;;;;;;;2.13;1.92;;;30.20;48.50;;;;;;5067866;28;45530;-75
2023/08/23 01:59:09;;;;;;;1.80;1.70;;;30.10;48.50;;;;;;5068395;28;45440;-75
2023/08/23 02:01:36;;;;;;;2.10;1.90;;;30.10;48.50;;;;;;5068242;28;45331;-75
2023/08/23 02:04:03;;;;;;;2.35;2.15;;;30.10;48.50;;;;;;5068241;28;45123;-75
2023/08/23 02:06:29;;;;;;;2.08;1.83;;;30.10;48.50;;;;;;5067848;28;47258;-74
2023/08/23 02:08:56;;;;;;;2.33;1.90;;;30.10;48.50;;;;;;5068092;28;45399;-74
2023/08/23 02:11:23;;;;;;;2.15;1.88;;;30.10;48.50;;;;;;5067855;28;45398;-73
2023/08/23 02:13:50;;;;;;;1.90;1.80;;;30.00;48.50;;;;;;5066432;28;45483;-74
2023/08/23 02:16:18;;;;;;;2.08;1.80;;;30.00;48.50;;;;;;5066719;28;46630;-74
2023/08/23 02:18:45;;;;;;;2.10;1.75;;;30.00;48.50;;;;;;5067699;28;45308;-74
2023/08/23 02:21:12;;;;;;;1.92;1.73;;;30.00;48.60;;;;;;5067752;28;45395;-74
2023/08/23 02:23:38;;;;;;;2.20;2.00;;;30.00;48.60;;;;;;5067830;28;45441;-74
2023/08/23 02:26:05;;;;;;;1.95;1.77;;;30.00;48.60;;;;;;5067036;28;46379;-74
2023/08/23 02:28:32;;;;;;;2.15;1.88;;;30.00;48.60;;;;;;5067551;28;45212;-74
2023/08/23 02:31:02;;;;;;;2.25;2.03;;;29.90;48.60;;;;;;5067676;28;45271;-74
2023/08/23 02:33:31;;;;;;;1.60;1.50;;;29.90;48.60;;;;;;5067804;28;45397;-75
2023/08/23 02:35:57;;;;;;;2.17;1.98;;;29.90;48.60;;;;;;5067056;28;46472;-75
2023/08/23 02:38:24;;;;;;;3.45;1.80;;;29.90;48.60;;;;;;5067447;28;45263;-74
2023/08/23 02:40:51;;;;;;;1.80;1.70;;;29.90;48.70;;;;;;5067572;28;45325;-74
2023/08/23 02:43:18;;;;;;;1.80;1.70;;;29.80;48.60;;;;;;5067628;28;45520;-74
2023/08/23 02:45:45;;;;;;;1.65;1.55;;;29.80;48.60;;;;;;5067196;28;46572;-74
2023/08/23 02:48:12;;;;;;;2.78;1.95;;;29.80;48.70;;;;;;5067220;28;45196;-74
2023/08/23 02:50:40;;;;;;;2.15;1.95;;;29.80;48.60;;;;;;5067110;28;45282;-74
2023/08/23 02:53:07;;;;;;;1.83;1.73;;;29.80;48.60;;;;;;5067317;28;45322;-74
2023/08/23 02:55:36;;;;;;;2.13;1.70;;;29.80;48.70;;;;;;5066960;28;46569;-74
2023/08/23 02:58:03;;;;;;;2.45;2.15;;;29.80;48.70;;;;;;5067053;28;45251;-75
2023/08/23 03:00:30;;;;;;;1.70;1.60;;;29.70;48.60;;;;;;5066471;28;45321;-74
2023/08/23 03:02:57;;;;;;;1.92;1.83;;;29.70;48.60;;;;;;5067333;28;45343;-74
2023/08/23 03:05:23;;;;;;;2.33;1.60;;;29.70;48.70;;;;;;5066776;28;45445;-74
2023/08/23 03:07:52;;;;;;;1.90;1.80;;;29.70;48.70;;;;;;5066889;28;45312;-73
2023/08/23 03:10:18;;;;;;;1.83;1.73;;;29.70;48.70;;;;;;5067072;28;45397;-73
2023/08/23 03:12:45;;;;;;;2.00;1.80;;;29.70;48.70;;;;;;5067068;28;45468;-73
2023/08/23 03:15:12;;;;;;;1.80;1.70;;;29.70;48.70;;;;;;5066717;28;46431;-74
2023/08/23 03:17:39;;;;;;;2.10;1.90;;;29.60;48.70;;;;;;5066727;28;45365;-74
2023/08/23 03:20:07;;;;;;;2.85;1.90;;;29.60;48.70;;;;;;5067051;28;45342;-74
2023/08/23 03:22:34;;;;;;;1.80;1.70;;;29.60;48.70;;;;;;5067052;28;45317;-74
2023/08/23 03:25:02;;;;;;;1.70;1.60;;;29.60;48.70;;;;;;5066411;28;45325;-74
2023/08/23 03:27:29;;;;;;;1.58;1.48;;;29.60;48.70;;;;;;5066838;28;45369;-74
2023/08/23 03:29:55;;;;;;;1.85;1.40;;;29.60;48.70;;;;;;5067128;28;45364;-74
2023/08/23 03:32:22;;;;;;;1.95;1.70;;;29.60;48.80;;;;;;5067005;28;45162;-74
2023/08/23 03:34:49;;;;;;;1.75;1.65;;;29.50;48.70;;;;;;5066896;28;45467;-74
2023/08/23 03:37:16;;;;;;;2.05;1.55;;;29.60;48.80;;;;;;5066287;28;45503;-74
2023/08/23 03:39:43;;;;;;;1.75;1.48;;;29.50;48.80;;;;;;5066910;28;45270;-74
2023/08/23 03:42:11;;;;;;;1.90;1.80;;;29.50;48.70;;;;;;5066607;28;45370;-73
2023/08/23 03:44:38;;;;;;;1.90;1.80;;;29.50;49.40;;;;;;5066427;28;46388;-73
2023/08/23 03:47:05;;;;;;;1.98;1.80;;;29.50;48.80;;;;;;5065825;28;45345;-73
2023/08/23 03:49:32;;;;;;;1.98;1.48;;;29.40;48.80;;;;;;5063228;28;45380;-74
2023/08/23 03:51:58;;;;;;;1.65;1.50;;;29.40;48.80;;;;;;5066460;28;45314;-74
2023/08/23 03:54:25;;;;;;;1.67;1.58;;;29.40;48.80;;;;;;5066248;28;46341;-74
2023/08/23 03:56:52;;;;;;;1.70;1.60;;;29.40;48.90;;;;;;5066044;28;45376;-74
2023/08/23 03:59:20;;;;;;;1.80;1.70;;;29.40;48.90;;;;;;5066249;28;45405;-74
2023/08/23 04:01:47;;;;;;;1.83;1.73;;;29.40;48.90;;;;;;5066409;28;45541;-74
2023/08/23 04:04:14;;;;;;;2.20;1.70;;;29.30;48.80;;;;;;5066115;28;46650;-74
2023/08/23 04:06:41;;;;;;;1.63;1.52;;;29.30;48.80;;;;;;5065881;28;45330;-75
2023/08/23 04:09:08;;;;;;;1.70;1.60;;;29.30;48.90;;;;;;5066295;28;45223;-74
2023/08/23 04:11:35;;;;;;;1.85;1.73;;;29.30;48.80;;;;;;5066440;28;45258;-74
2023/08/23 04:14:02;;;;;;;2.03;1.83;;;29.30;48.80;;;;;;5065911;28;46650;-74
2023/08/23 04:16:30;;;;;;;1.70;1.60;;;29.30;48.90;;;;;;5066114;28;45302;-74
2023/08/23 04:18:57;;;;;;;1.88;1.45;;;29.30;48.90;;;;;;5066229;28;45355;-75
2023/08/23 04:21:24;;;;;;;1.75;1.63;;;29.30;48.80;;;;;;5066303;28;45374;-74
2023/08/23 04:23:51;;;;;;;1.63;1.52;;;29.30;48.90;;;;;;5066015;28;45268;-74
2023/08/23 04:26:18;;;;;;;1.67;1.42;;;29.30;48.90;;;;;;5065681;28;45397;-74
2023/08/23 04:28:46;;;;;;;2.78;1.55;;;29.20;48.90;;;;;;5066082;28;45369;-74
2023/08/23 04:31:13;;;;;;;1.50;1.40;;;29.20;48.90;;;;;;5066156;28;45262;-74
2023/08/23 04:33:42;;;;;;;2.05;1.88;;;29.20;48.90;;;;;;5064948;28;45461;-75
2023/08/23 04:36:09;;;;;;;1.80;1.65;;;29.20;49.00;;;;;;5065143;28;45423;-74
2023/08/23 04:38:36;;;;;;;2.00;1.67;;;29.20;49.00;;;;;;5068512;28;45346;-74
2023/08/23 04:41:03;;;;;;;1.73;1.63;;;29.20;49.00;;;;;;5069657;28;45155;-74
2023/08/23 04:43:30;;;;;;;2.25;1.75;;;29.20;49.00;;;;;;5069147;28;45262;-74
2023/08/23 04:45:57;;;;;;;1.50;1.40;;;29.10;48.90;;;;;;5068975;28;45278;-75
2023/08/23 04:48:24;;;;;;;1.70;1.38;;;29.10;48.90;;;;;;5069342;28;45309;-75
2023/08/23 04:50:53;;;;;;;2.35;1.67;;;29.10;48.90;;;;;;5069442;28;45508;-74
2023/08/23 04:53:18;;;;;;;2.22;1.85;;;29.10;49.00;;;;;;5068670;28;46724;-74
2023/08/23 04:55:45;;;;;;;1.80;1.70;;;29.10;49.00;;;;;;5068831;28;45211;-74
2023/08/23 04:58:12;;;;;;;1.70;1.60;;;29.10;49.00;;;;;;5068937;28;45338;-75
2023/08/23 05:00:39;;;;;;;1.88;1.77;;;29.10;49.00;;;;;;5069182;28;45312;-75
2023/08/23 05:03:06;;;;;;;1.83;1.73;;;29.10;49.10;;;;;;5068747;28;45367;-74
2023/08/23 05:05:33;;;;;;;1.90;1.80;;;29.10;49.10;;;;;;5068870;28;45285;-74
2023/08/23 05:08:01;;;;;;;1.65;1.55;;;29.00;49.00;;;;;;5068899;28;45228;-75
2023/08/23 05:10:28;;;;;;;2.22;1.67;;;29.00;49.10;;;;;;5069427;28;45456;-74
2023/08/23 05:12:55;;;;;;;1.73;1.63;;;29.00;49.10;;;;;;5068794;28;47629;-74
2023/08/23 05:15:22;;;;;;;1.95;1.80;;;29.00;49.10;;;;;;5068588;28;45346;-74
2023/08/23 05:17:49;;;;;;;2.95;2.08;;;29.00;49.10;;;;;;5068695;28;45251;-73
2023/08/23 05:20:17;;;;;;;2.67;1.73;;;29.00;49.10;;;;;;5068161;28;45244;-74
2023/08/23 05:22:44;;;;;;;2.00;1.80;;;29.00;49.10;;;;;;5068150;28;47139;-74
2023/08/23 05:25:12;;;;;;;2.42;1.80;;;29.00;49.10;;;;;;5068454;28;45388;-74
2023/08/23 05:27:39;;;;;;;1.92;1.65;;;28.90;49.10;;;;;;5068533;28;45195;-74
2023/08/23 05:30:08;;;;;;;1.77;1.67;;;28.90;49.10;;;;;;5068735;28;45134;-75
2023/08/23 05:32:35;;;;;;;1.75;1.65;;;28.90;49.10;;;;;;5068660;28;47206;-74
2023/08/23 05:35:03;;;;;;;3.67;1.90;;;28.90;49.10;;;;;;5068353;28;45327;-74
2023/08/23 05:37:29;;;;;;;1.65;1.55;;;28.90;49.10;;;;;;5068337;28;45170;-75
2023/08/23 05:39:56;;;;;;;1.80;1.70;;;28.90;49.10;;;;;;5068317;28;45505;-74
2023/08/23 05:42:24;;;;;;;2.00;1.90;;;28.90;49.20;;;;;;5068185;28;45487;-74
2023/08/23 05:44:51;;;;;;;2.30;1.65;;;28.90;49.10;;;;;;5068308;28;45285;-74
2023/08/23 05:47:18;;;;;;;2.47;1.90;;;28.90;49.20;;;;;;5068221;28;45357;-74
2023/08/23 05:49:45;;;;;;;2.15;1.63;;;28.90;49.20;;;;;;5068086;28;45254;-74
2023/08/23 05:52:12;;;;;;;1.70;1.60;;;28.90;49.20;;;;;;5067701;28;46357;-74
2023/08/23 05:54:38;;;;;;;2.00;1.80;;;28.90;49.20;;;;;;5068205;28;45424;-75
2023/08/23 05:57:05;;;;;;;1.98;1.80;;;28.90;49.20;;;;;;5068039;28;45332;-74
2023/08/23 05:59:34;;;;;;;2.05;1.60;;;28.90;49.20;;;;;;5068152;28;45436;-74
2023/08/23 06:02:01;;;;;;;1.80;1.58;;;28.90;49.20;;;;;;5067855;28;45239;-75
2023/08/23 06:04:28;;;;;;;2.47;1.80;;;28.90;49.20;;;;;;5068061;28;45388;-75
2023/08/23 06:06:55;;;;;;;1.75;1.65;;;28.90;49.20;;;;;;5064476;28;45333;-74
2023/08/23 06:09:22;;;;;;;1.80;1.70;;;28.90;49.20;;;;;;5068287;28;45362;-74
2023/08/23 06:11:49;;;;;;;2.05;1.88;;;28.90;49.20;;;;;;5067611;28;48787;-74
2023/08/23 06:14:17;;;;;;;1.88;1.73;;;28.90;49.20;;;;;;5067622;28;45388;-74
2023/08/23 06:16:45;;;;;;;2.97;1.75;;;28.90;49.20;;;;;;5067815;28;45388;-74
2023/08/23 06:19:12;;;;;;;1.75;1.65;;;28.90;49.20;;;;;;5067860;28;45427;-74
2023/08/23 06:21:40;;;;;;;2.03;1.85;;;28.90;49.30;;;;;;5067503;28;45330;-74
2023/08/23 06:24:07;;;;;;;1.63;1.52;;;28.90;49.20;;;;;;5067670;28;45293;-75
2023/08/23 06:26:34;;;;;;;3.20;1.92;;;28.90;49.20;;;;;;5067779;28;45396;-74
2023/08/23 06:29:01;;;;;;;2.08;1.70;;;28.90;49.20;;;;;;5067800;28;45466;-74
2023/08/23 06:31:27;;;;;;;2.00;1.73;;;28.90;49.30;;;;;;5067459;28;45431;-74
2023/08/23 06:33:56;;;;;;;1.83;1.73;;;28.80;49.20;;;;;;5067382;28;45339;-74
2023/08/23 06:36:22;;;;;;;1.95;1.85;;;28.90;49.20;;;;;;5064910;28;45428;-74
2023/08/23 06:38:49;;;;;;;1.77;1.67;;;28.90;49.20;;;;;;5067601;28;45483;-74
2023/08/23 06:41:16;;;;;;;4.40;1.70;;;28.90;49.30;;;;;;5067213;28;45262;-74
2023/08/23 06:43:43;;;;;;;1.90;1.67;;;28.90;49.30;;;;;;5067446;28;45357;-74
2023/08/23 06:46:10;;;;;;;1.80;1.70;;;28.90;49.30;;;;;;5067490;28;45346;-74
2023/08/23 06:48:37;;;;;;;1.67;1.58;;;28.90;49.90;;;;;;5067670;28;45254;-74
2023/08/23 06:51:05;;;;;;;2.00;1.60;;;28.90;49.30;;;;;;5066361;28;45465;-74
2023/08/23 06:53:33;;;;;;;2.38;1.63;;;28.90;49.30;;;;;;5066213;28;45454;-74
2023/08/23 06:56:00;;;;;;;2.50;1.90;;;28.90;49.30;;;;;;5067061;28;45318;-74
2023/08/23 06:58:26;;;;;;;1.90;1.80;;;28.90;49.30;;;;;;5067376;28;45504;-74
2023/08/23 07:00:56;;;;;;;2.22;2.03;;;28.90;49.30;;;;;;5066220;28;47595;-74
2023/08/23 07:03:23;;;;;;;3.05;1.65;;;28.90;49.30;;;;;;5066931;28;45412;-74
2023/08/23 07:05:49;;;;;;;1.80;1.70;;;28.90;49.20;;;;;;5066903;28;45277;-75
2023/08/23 07:08:18;;;;;;;3.78;1.65;;;28.90;49.20;;;;;;5067199;28;45471;-74
2023/08/23 07:10:45;;;;;;;2.67;2.00;;;28.90;49.30;;;;;;5066826;28;46585;-75
2023/08/23 07:13:11;;;;;;;1.77;1.58;;;28.90;49.30;;;;;;5066860;28;45300;-75
2023/08/23 07:15:40;;;;;;;1.90;1.80;;;28.90;49.30;;;;;;5066869;28;45274;-74
2023/08/23 07:18:07;;;;;;;2.03;1.92;;;28.90;49.30;;;;;;5067015;28;45492;-75
2023/08/23 07:20:34;;;;;;;1.70;1.60;;;28.90;49.30;;;;;;5066716;28;45448;-74
2023/08/23 07:23:01;;;;;;;2.20;1.95;;;29.00;49.40;;;;;;5066713;28;45377;-74
2023/08/23 07:25:29;;;;;;;2.13;2.00;;;29.00;49.40;;;;;;5066748;28;45333;-75
2023/08/23 07:27:56;;;;;;;1.95;1.77;;;29.00;49.40;;;;;;5067265;28;45364;-74
2023/08/23 07:30:23;;;;;;;3.55;1.80;;;29.00;49.40;;;;;;5066467;28;45262;-75
2023/08/23 07:32:49;;;;;;;1.80;1.70;;;29.00;49.40;;;;;;5066864;28;45385;-75
2023/08/23 07:35:16;;;;;;;2.15;1.92;;;29.00;49.40;;;;;;5066675;28;45395;-75
2023/08/23 07:37:44;;;;;;;2.83;1.70;;;29.00;49.50;;;;;;5066098;28;45461;-75
2023/08/23 07:40:11;;;;;;;2.60;1.92;;;29.00;49.50;;;;;;5065863;28;45515;-75
2023/08/23 07:42:39;;;;;;;1.70;1.60;;;29.00;49.50;;;;;;5066240;28;45324;-75
2023/08/23 07:45:07;;;;;;;2.33;1.50;;;29.00;49.50;;;;;;5066564;28;45318;-75
2023/08/23 07:47:34;;;;;;;3.28;2.00;;;29.00;49.50;;;;;;5066742;28;45401;-74
2023/08/23 07:50:01;;;;;;;1.77;1.67;;;29.00;49.50;;;;;;5066241;28;45365;-74
2023/08/23 07:52:28;;;;;;;1.80;1.70;;;29.10;49.60;;;;;;5066194;28;45416;-75
2023/08/23 07:54:55;;;;;;;2.13;1.85;;;29.10;49.40;;;;;;5066635;28;45409;-74
2023/08/23 07:57:22;;;;;;;1.90;1.77;;;29.10;50.00;;;;;;5066151;28;45464;-75
2023/08/23 07:59:50;;;;;;;2.13;1.80;;;29.10;49.40;;;;;;5065929;28;46732;-74
2023/08/23 08:02:23;;;;;;;1.88;1.75;;;29.10;49.40;;;;;;5066218;28;46167;-75
2023/08/23 08:04:50;;;;;;;1.92;1.80;;;29.10;49.40;;;;;;5066216;28;45359;-74
2023/08/23 08:07:16;;;;;;;1.80;1.70;;;29.20;49.50;;;;;;5066335;28;45397;-74
2023/08/23 08:09:43;;;;;;;2.88;1.75;;;29.20;49.50;;;;;;5065949;28;45331;-74
2023/08/23 08:12:10;;;;;;;1.60;1.50;;;29.20;49.40;;;;;;5068015;28;45299;-74
2023/08/23 08:14:37;;;;;;;1.80;1.70;;;29.20;49.40;;;;;;5069808;28;45318;-74
2023/08/23 08:17:05;;;;;;;2.20;2.08;;;29.20;49.40;;;;;;5069902;28;45426;-74
2023/08/23 08:19:32;;;;;;;2.30;2.10;;;29.20;49.40;;;;;;5069397;28;47027;-74
2023/08/23 08:21:59;;;;;;;2.20;2.00;;;29.30;49.40;;;;;;5067042;28;45381;-74
2023/08/23 08:24:28;;;;;;;2.10;1.83;;;29.30;49.30;;;;;;5069809;28;45428;-73
2023/08/23 08:26:55;;;;;;;3.13;1.75;;;29.30;49.30;;;;;;5069179;28;45413;-75
2023/08/23 08:29:22;;;;;;;2.65;1.80;;;29.30;49.20;;;;;;5069545;28;45490;-74
2023/08/23 08:31:50;;;;;;;2.10;1.90;;;29.30;49.10;;;;;;5069482;28;45182;-74
2023/08/23 08:34:19;;;;;;;2.00;1.90;;;29.40;49.10;;;;;;5069792;28;45460;-74
2023/08/23 08:36:45;;;;;;;1.92;1.83;;;29.40;49.00;;;;;;5069402;28;45413;-74
2023/08/23 08:39:12;;;;;;;3.75;1.85;;;29.40;48.90;;;;;;5069053;28;45371;-73
2023/08/23 08:41:41;;;;;;;1.70;1.60;;;29.50;49.00;;;;;;5069283;28;45278;-74
2023/08/23 08:44:11;;;;;;;3.13;2.17;;;29.50;48.90;;;;;;5069983;28;45373;-74
2023/08/23 08:46:39;;;;;;;1.70;1.60;;;29.50;49.00;;;;;;5069767;28;45309;-75
2023/08/23 08:49:06;;;;;;;1.95;1.70;;;29.50;48.90;;;;;;5069326;28;45320;-74
2023/08/23 08:51:36;;;;;;;2.20;1.75;;;29.60;49.00;;;;;;5067286;28;45376;-75
2023/08/23 08:54:05;;;;;;;1.90;1.67;;;29.60;49.10;;;;;;5053961;28;45265;-74
2023/08/23 08:56:32;;;;;;;2.00;1.90;;;29.60;49.10;;;;;;5049139;28;45433;-75
2023/08/23 08:58:58;;;;;;;4.13;1.90;;;29.70;49.20;;;;;;5049114;28;46704;-74
2023/08/23 09:01:25;;;;;;;2.67;1.98;;;29.70;49.30;;;;;;5050455;28;44855;-75
2023/08/23 09:03:52;;;;;;;2.55;2.05;;;29.70;49.30;;;;;;5067939;28;45136;-75
2023/08/23 09:06:20;;;;;;;2.70;1.90;;;29.80;49.30;;;;;;5061270;28;45475;-74
2023/08/23 09:08:48;;;;;;;3.47;1.95;;;29.70;49.30;;;;;;5059748;28;46242;-74
2023/08/23 09:11:15;;;;;;;1.65;1.55;;;29.80;49.40;;;;;;5053676;28;45380;-75
2023/08/23 09:13:41;;;;;;;3.25;2.10;;;29.80;49.40;;;;;;5065782;28;45436;-75
2023/08/23 09:16:08;;;;;;;2.17;1.95;;;29.80;49.30;;;;;;5054073;28;45262;-74
2023/08/23 09:18:35;;;;;;;2.35;1.80;;;29.80;49.30;;;;;;5058439;28;46381;-75
2023/08/23 09:21:02;;;;;;;2.20;2.05;;;29.90;49.40;;;;;;5056652;28;45434;-75
2023/08/23 09:23:34;;;;;;;3.50;1.80;;;29.90;49.10;;;;;;5066782;28;45384;-73
2023/08/23 09:26:03;;;;;;;2.67;2.10;;;29.90;49.10;;;;;;5061943;28;45413;-73
2023/08/23 09:28:30;;;;;;;3.22;2.17;;;29.90;49.20;;;;;;5058599;28;45440;-73
2023/08/23 09:30:57;;;;;;;2.40;2.13;;;30.00;49.30;;;;;;5053967;28;45204;-73
2023/08/23 09:33:23;;;;;;;2.20;2.00;;;30.00;49.20;;;;;;5062074;28;45421;-73
2023/08/23 09:35:50;;;;;;;2.72;1.83;;;30.00;49.00;;;;;;5053297;28;45410;-73
2023/08/23 09:38:20;;;;;;;2.22;2.03;;;30.00;48.40;;;;;;5059225;28;46389;-73
2023/08/23 09:40:47;;;;;;;2.20;2.10;;;30.00;49.00;;;;;;5061131;28;45359;-73
2023/08/23 09:43:15;;;;;;;3.38;2.38;;;30.00;49.20;;;;;;5051893;28;45504;-73
2023/08/23 09:45:42;;;;;;;2.65;2.20;;;30.10;49.30;;;;;;5051847;28;45389;-73
2023/08/23 09:48:10;;;;;;;2.58;2.38;;;30.10;49.60;;;;;;5060394;28;45749;-73
2023/08/23 09:50:37;;;;;;;4.38;2.65;;;30.20;49.70;;;;;;5058384;28;45187;-72
2023/08/23 09:53:05;;;;;;;5.25;2.38;;;30.20;49.90;;;;;;5060938;28;45237;-73
2023/08/23 09:55:32;;;;;;;3.42;2.45;;;30.20;49.60;;;;;;5067146;28;45375;-73
2023/08/23 09:58:00;;;;;;;3.78;2.30;;;30.20;49.90;;;;;;5056175;28;45604;-73
2023/08/23 10:00:28;;;;;;;2.65;2.45;;;30.30;50.10;;;;;;5067863;28;45372;-73
2023/08/23 10:02:56;;;;;;;2.80;2.60;;;30.30;50.30;;;;;;5053766;28;45270;-73
2023/08/23 10:05:23;;;;;;;3.90;2.67;;;30.30;50.40;;;;;;5056712;28;45503;-73
2023/08/23 10:07:50;;;;;;;4.93;2.65;;;30.40;50.80;;;;;;5060757;28;45532;-73
2023/08/23 10:10:16;;;;;;;3.45;2.47;;;30.50;51.10;;;;;;5055633;28;45440;-73
2023/08/23 10:12:52;;;;;;;4.05;2.80;;;30.50;51.10;;;;;;5057979;28;45337;-73
2023/08/23 10:15:22;;;;;;;3.70;2.50;;;30.50;51.30;;;;;;5060055;28;45314;-73
2023/08/23 10:17:50;;;;;;;2.72;2.40;;;30.60;51.30;;;;;;5057769;28;45487;-72
2023/08/23 10:20:17;;;;;;;2.70;2.50;;;30.60;51.30;;;;;;5052595;28;45509;-73
2023/08/23 10:22:44;;;;;;;3.63;2.75;;;30.70;51.20;;;;;;5063705;28;45415;-72
2023/08/23 10:25:16;;;;;;;2.50;2.30;;;30.70;51.10;;;;;;5066832;28;45349;-72
2023/08/23 10:27:46;;;;;;;2.83;2.50;;;30.70;51.00;;;;;;5067470;28;45518;-72
2023/08/23 10:30:16;;;;;;;2.58;2.40;;;30.80;51.10;;;;;;5067489;28;45341;-72
2023/08/23 10:32:46;;;;;;;2.30;2.20;;;30.80;51.10;;;;;;5067278;28;45393;-73
2023/08/23 10:35:24;;;;;;;2.88;2.65;;;30.90;51.10;;;;;;5061833;28;45396;-73
2023/08/23 10:37:53;;;;;;;4.00;2.90;;;30.90;51.00;;;;;;5067083;28;45338;-72
2023/08/23 10:40:21;;;;;;;4.93;2.38;;;30.90;50.80;;;;;;5066735;28;45314;-74
2023/08/23 10:42:48;;;;;;;2.80;2.60;;;31.00;50.60;;;;;;5064126;28;45518;-72
2023/08/23 10:45:15;;;;;;;6.93;3.13;;;31.00;50.70;;;;;;5052182;28;45530;-71
2023/08/23 10:47:42;;;;;;;3.55;3.25;;;31.00;49.70;;;;;;5066744;28;45468;-71
2023/08/23 10:50:09;;;;;;;4.68;3.45;;;30.90;48.30;;;;;;5063781;28;45314;-71
2023/08/23 10:52:37;;;;;;;3.65;3.25;;;30.80;48.30;;;;;;5050540;28;45318;-70
2023/08/23 10:55:05;;;;;;;6.05;3.65;;;30.70;48.40;;;;;;5061872;28;45352;-70
2023/08/23 10:57:42;;;;;;;5.15;3.28;;;30.60;48.10;;;;;;5138070;27;45503;-71
2023/08/23 11:00:10;;;;;;;4.10;3.58;;;30.60;48.90;;;;;;5133873;27;45367;-72
2023/08/23 11:02:37;;;;;;;3.85;3.55;;;30.60;48.20;;;;;;5131007;27;45257;-72
2023/08/23 11:05:04;;;;;;;4.70;3.70;;;30.60;48.10;;;;;;5142791;27;45512;-71
2023/08/23 11:07:31;;;;;;;6.70;3.97;;;30.60;48.00;;;;;;5143529;27;46315;-71
2023/08/23 11:09:58;;;;;;;4.85;3.40;;;30.60;48.10;;;;;;5131092;27;45402;-71
2023/08/23 11:12:25;;;;;;;5.30;3.20;;;30.70;48.00;;;;;;5134744;27;45288;-71
2023/08/23 11:14:53;;;;;;;3.47;3.03;;;30.80;47.70;;;;;;5132811;27;45338;-72
2023/08/23 11:17:20;;;;;;;4.20;3.30;;;30.80;47.60;;;;;;5142776;27;46429;-71
2023/08/23 11:19:47;;;;;;;4.22;3.13;;;30.90;47.20;;;;;;5141346;27;45397;-72
2023/08/23 11:22:14;;;;;;;4.15;3.15;;;30.90;47.00;;;;;;5130702;27;45442;-72
2023/08/23 11:24:41;;;;;;;3.83;3.40;;;31.00;46.90;;;;;;5138242;27;45179;-72
2023/08/23 11:27:13;;;;;;;7.30;3.35;;;31.00;46.80;;;;;;5135254;27;45483;-72
2023/08/23 11:29:42;;;;;;;4.07;3.33;;;31.00;46.80;;;;;;5144341;27;45365;-72
2023/08/23 11:32:12;;;;;;;8.20;3.10;;;31.10;46.50;;;;;;5144590;27;45283;-73
2023/08/23 11:34:38;;;;;;;6.00;3.53;;;31.20;46.20;;;;;;5140299;27;45390;-72
2023/08/23 11:37:08;;;;;;;3.85;3.08;;;31.20;46.20;;;;;;5135817;27;47388;-72
2023/08/23 11:39:35;;;;;;;5.10;2.90;;;31.30;46.20;;;;;;5138322;27;45623;-71
2023/08/23 11:42:01;;;;;;;6.05;3.17;;;31.50;46.20;;;;;;5140547;27;45453;-72
2023/08/23 11:44:28;;;;;;;4.65;3.22;;;31.60;45.80;;;;;;5144089;27;45434;-73
2023/08/23 11:46:57;;;;;;;3.83;2.95;;;31.60;45.40;;;;;;5146999;27;46741;-72
2023/08/23 11:49:25;;;;;;;3.00;2.80;;;31.60;45.40;;;;;;5131622;27;45473;-71
2023/08/23 11:51:53;;;;;;;4.68;3.00;;;31.60;45.30;;;;;;5132036;27;45444;-71
2023/08/23 11:54:22;;;;;;;3.75;2.90;;;31.70;45.10;;;;;;5140657;27;45375;-72
2023/08/23 11:56:48;;;;;;;4.65;3.28;;;31.80;45.00;;;;;;5132146;27;45402;-71
2023/08/23 11:59:15;;;;;;;5.05;3.15;;;31.80;45.00;;;;;;5133099;27;45442;-71
2023/08/23 12:01:43;;;;;;;4.43;3.00;;;31.90;45.00;;;;;;5130484;27;45334;-71
2023/08/23 12:04:10;;;;;;;4.70;2.88;;;31.90;44.80;;;;;;5126424;27;45603;-71
2023/08/23 12:06:38;;;;;;;4.05;3.00;;;31.90;44.80;;;;;;5133611;27;46411;-71
2023/08/23 12:09:05;;;;;;;4.72;3.20;;;31.90;44.50;;;;;;5110815;27;45447;-71
2023/08/23 12:11:32;;;;;;;3.40;2.83;;;32.00;44.60;;;;;;5111120;27;45393;-71
2023/08/23 12:14:00;;;;;;;4.75;3.03;;;32.00;44.40;;;;;;5109392;27;45325;-71
2023/08/23 12:16:27;;;;;;;3.95;3.00;;;32.10;44.40;;;;;;5119990;27;47417;-71
2023/08/23 12:18:54;;;;;;;5.50;2.97;;;32.10;44.40;;;;;;5122653;27;45513;-71
2023/08/23 12:21:21;;;;;;;3.88;3.05;;;32.20;44.40;;;;;;5113271;27;45375;-71
2023/08/23 12:23:49;;;;;;;3.45;2.90;;;32.20;44.20;;;;;;5120352;27;45457;-72
2023/08/23 12:26:18;;;;;;;3.03;2.72;;;32.30;44.10;;;;;;5119783;27;46315;-71
2023/08/23 12:28:45;;;;;;;3.78;2.42;;;32.40;44.20;;;;;;5129412;27;45305;-71
2023/08/23 12:31:15;;;;;;;4.80;3.00;;;32.50;43.70;;;;;;5127159;27;45460;-71
2023/08/23 12:33:42;;;;;;;4.38;2.72;;;32.50;43.60;;;;;;5120604;27;45283;-70
2023/08/23 12:36:09;;;;;;;3.17;2.88;;;32.70;43.90;;;;;;5123625;27;45531;-72
2023/08/23 12:38:36;;;;;;;6.97;2.83;;;32.70;43.70;;;;;;5122446;27;45407;-72
2023/08/23 12:41:04;;;;;;;8.05;2.97;;;32.90;43.30;;;;;;5111978;27;45343;-71
2023/08/23 12:43:33;;;;;;;3.45;2.75;;;32.90;43.10;;;;;;5122654;27;45427;-70
2023/08/23 12:46:00;;;;;;;3.45;2.67;;;32.90;43.10;;;;;;5120166;27;45493;-71
2023/08/23 12:48:27;;;;;;;10.30;3.10;;;32.90;43.00;;;;;;5123779;27;45469;-72